Ana Sayfa
METAR-TAF:

METAR-TAF

Havaalanları :

Çanakkale, Türkiye

Çanakkale Havalimanı

Enlem: 40-08N, Boylam: 026-24E, yükseklik: 3 m

Güncel hava durumu gözlemi

Rapor saat 13:50 UTC de 43 dakika önce yapıldı.
Rüzgar kuzeydoğudan 17 kt
Sıcaklık 10°C
Nem 76%
Basınç 1013 hPa
Görüş mesafesi 10 km veya daha fazla
1500 ft yükseklikte az bulutlu
3500 ft yükseklikte parçalı bulutlu
10000 ft yükseklikte parçalı çok bulutlu

METAR: LTBH 231350Z 04017KT 9999 FEW015 SCT035 BKN100 10/06 Q1013

Saat: 17:33 (14:33 UTC)

Tahmin

Rapor saat 10:40 UTC de 3 saat ve 53 dakika önce yapıldı.
Ayın 23'si saat 12 UTC'den ayın 23'si saat 21 UTC'ye kadar geçerli Tahmin
Rüzgar kuzeydoğudan 18 kt
Görüş mesafesi 10 km veya daha fazla
1000 ft yükseklikte parçalı bulutlu
3000 ft yükseklikte parçalı çok bulutlu
10000 ft yükseklikte parçalı çok bulutlu

TAF: LTBH 231040Z 2312/2321 04018KT 9999 SCT010 BKN030 BKN100

4.000'den fazla havaalanı için hava durumu gözlemleri ve tahminleri (METAR ve TAF raporları).

Kullanılabilir istasyonlar harita üzerinde sarı ve kırmızı noktalarla gösterilir.

İstasyonun adını görmek için fareyi noktanın üzerinde gezdirin.

Sonrasında hava gözlem ve tahminlerini görmek için tıklayın.

Haritayı değiştirmek için: yaklaştırmak için siyah artı işaretli yeşil düğmeye ve uzaklaştırmak için de eksi işaretli düğmeye hızla tıklayın; bitişik haritalar için yeşil okları kullanın.


METAR-TAF: